Time;durP1;ratioP1;P1;durP2;ratioP2;P2;SDS_P1;SDS_P2;PMS_P1;PMS_P2;Temp;Humidity;BMP_temperature;BMP_pressure;BME280_temperature;BME280_humidity;BME280_pressure;Samples;Min_cycle;Max_cycle;Signal;HPM_P1;HPM_P2
2022/12/15 00:41:05;;;;;;;17.05;13.38;;;;;;;2.83;100.00;92190.25;5089209;28;20523;-71
2022/12/15 00:43:34;;;;;;;16.58;12.70;;;;;;;2.75;100.00;92168.38;5089042;28;20086;-71
2022/12/15 00:48:54;;;;;;;44.20;33.25;;;;;;;2.95;100.00;92186.22;5052773;28;20123;-71
2022/12/15 01:21:31;;;;;;;8.70;7.43;;;;;;;2.83;100.00;92150.47;5088465;28;20570;-72
2022/12/15 01:23:59;;;;;;;7.38;6.20;;;;;;;2.98;100.00;92142.72;5089425;28;20080;-72
2022/12/15 01:26:26;;;;;;;8.02;5.38;;;;;;;3.05;100.00;92155.41;5089312;28;20048;-72
2022/12/15 01:28:52;;;;;;;5.70;3.85;;;;;;;3.09;100.00;92158.38;5089598;28;20071;-72
2022/12/15 01:31:19;;;;;;;5.53;4.38;;;;;;;3.17;100.00;92174.22;5089259;28;20160;-72
2022/12/15 01:33:46;;;;;;;5.65;4.03;;;;;;;3.20;100.00;92173.81;5090854;28;20052;-72
2022/12/15 01:36:13;;;;;;;4.63;3.10;;;;;;;3.25;100.00;92173.28;5092606;28;20502;-72
2022/12/15 01:38:39;;;;;;;3.75;2.47;;;;;;;3.41;100.00;92158.66;5092693;28;20043;-72
2022/12/15 01:41:09;;;;;;;7.35;3.60;;;;;;;3.46;100.00;92164.72;5093139;28;20059;-72
2022/12/15 01:43:39;;;;;;;5.20;3.00;;;;;;;3.49;100.00;92158.50;5092841;28;20044;-72
2022/12/15 01:46:07;;;;;;;5.22;2.97;;;;;;;3.57;100.00;92148.16;5092827;28;20121;-72
2022/12/15 01:48:38;;;;;;;4.70;2.33;;;;;;;3.63;100.00;92156.75;5092382;28;20048;-71
2022/12/15 01:51:16;;;;;;;4.95;2.45;;;;;;;3.65;100.00;92156.56;5092856;28;20048;-72
2022/12/15 01:53:48;;;;;;;8.10;5.20;;;;;;;3.71;100.00;92154.03;5092738;28;20071;-72
2022/12/15 01:56:16;;;;;;;5.20;3.78;;;;;;;3.79;100.00;92147.97;5092427;28;20464;-72
2022/12/15 01:58:45;;;;;;;5.88;3.92;;;;;;;3.81;100.00;92163.03;5092434;28;20097;-72
2022/12/15 02:01:12;;;;;;;4.57;2.70;;;;;;;3.77;100.00;92172.00;5091966;28;20052;-72
2022/12/15 02:03:41;;;;;;;3.60;2.67;;;;;;;3.72;100.00;92152.28;5091951;28;20093;-72
2022/12/15 02:06:09;;;;;;;4.93;2.65;;;;;;;3.70;100.00;92155.00;5092083;28;20529;-72
2022/12/15 02:08:36;;;;;;;5.80;3.00;;;;;;;3.74;100.00;92140.94;5091990;28;20048;-72
2022/12/15 02:11:36;;;;;;;4.10;2.70;;;;;;;3.79;100.00;92140.34;5092128;28;20488;-72
2022/12/15 02:14:05;;;;;;;5.10;3.08;;;;;;;3.80;100.00;92133.53;5091669;28;20496;-72
2022/12/15 02:16:47;;;;;;;3.63;2.70;;;;;;;3.79;100.00;92126.91;5092168;28;20052;-72
2022/12/15 02:19:45;;;;;;;4.50;2.50;;;;;;;3.81;100.00;92130.81;5092191;28;20132;-72
2022/12/15 02:22:27;;;;;;;3.22;2.38;;;;;;;3.83;100.00;92133.91;5091643;28;20088;-72
2022/12/15 02:25:20;;;;;;;3.25;2.50;;;;;;;3.93;100.00;92117.50;5092122;28;20529;-72
2022/12/15 02:27:58;;;;;;;5.80;2.70;;;;;;;3.90;100.00;92123.78;5092084;28;20567;-72
2022/12/15 02:30:38;;;;;;;3.85;3.08;;;;;;;4.00;100.00;92125.91;5091958;28;20114;-72
2022/12/15 02:33:15;;;;;;;3.97;2.70;;;;;;;4.05;100.00;92120.22;5091870;28;20044;-71
2022/12/15 02:35:57;;;;;;;2.97;2.22;;;;;;;4.10;100.00;92118.69;5091659;28;20101;-72
2022/12/15 02:38:33;;;;;;;2.58;2.00;;;;;;;4.11;100.00;92121.97;5091588;28;20185;-72
2022/12/15 02:41:01;;;;;;;2.95;1.80;;;;;;;4.15;100.00;92125.69;5091737;28;20052;-72
2022/12/15 02:43:29;;;;;;;3.42;2.10;;;;;;;4.08;100.00;92117.31;5091358;28;20121;-72
2022/12/15 02:46:09;;;;;;;3.83;1.95;;;;;;;4.21;100.00;92142.69;5090525;28;20083;-72
2022/12/15 02:48:48;;;;;;;2.40;1.88;;;;;;;4.25;100.00;92138.78;5091026;28;20105;-72
2022/12/15 02:51:33;;;;;;;2.97;2.15;;;;;;;4.26;100.00;92142.91;5091656;28;20087;-72
2022/12/15 02:54:17;;;;;;;3.45;2.10;;;;;;;4.31;100.00;92146.63;5091557;28;20083;-71
2022/12/15 02:56:55;;;;;;;3.20;2.00;;;;;;;4.33;100.00;92154.81;5091121;28;20051;-71
2022/12/15 02:59:32;;;;;;;3.67;2.25;;;;;;;4.40;100.00;92151.28;5091419;28;20044;-71
2022/12/15 03:02:04;;;;;;;3.50;2.20;;;;;;;4.45;100.00;92149.91;5091341;28;20097;-71
2022/12/15 03:04:32;;;;;;;3.97;2.42;;;;;;;4.48;100.00;92144.41;5090971;28;20596;-71
2022/12/15 03:07:03;;;;;;;3.03;2.25;;;;;;;4.49;100.00;92135.84;5090926;28;20092;-71
2022/12/15 03:09:30;;;;;;;5.15;2.67;;;;;;;4.46;100.00;92149.72;5091139;28;20162;-71
2022/12/15 03:11:57;;;;;;;4.93;2.80;;;;;;;4.50;100.00;92152.66;5091193;28;20047;-71
2022/12/15 03:14:24;;;;;;;4.53;3.30;;;;;;;4.55;100.00;92165.56;5090914;28;20070;-71
2022/12/15 03:16:52;;;;;;;5.05;3.42;;;;;;;4.54;100.00;92172.41;5090898;28;20411;-71
2022/12/15 03:19:20;;;;;;;4.20;3.25;;;;;;;4.51;100.00;92146.59;5090988;28;20052;-71
2022/12/15 03:21:47;;;;;;;6.90;3.60;;;;;;;4.41;100.00;92119.78;5090724;28;20511;-71
2022/12/15 03:24:14;;;;;;;6.32;4.07;;;;;;;4.63;100.00;92154.41;5090953;28;20469;-71
2022/12/15 03:26:40;;;;;;;5.57;3.28;;;;;;;4.68;100.00;92155.34;5090925;28;20077;-71
2022/12/15 03:29:07;;;;;;;3.90;2.78;;;;;;;4.67;100.00;92142.81;5090558;28;20841;-71
2022/12/15 03:31:34;;;;;;;3.90;3.15;;;;;;;4.75;100.00;92139.28;5090855;28;20044;-71
2022/12/15 03:34:01;;;;;;;4.38;3.20;;;;;;;4.71;100.00;92128.72;5090397;28;20048;-71
2022/12/15 03:36:29;;;;;;;6.25;3.10;;;;;;;4.72;100.00;92148.09;5090683;28;20937;-71
2022/12/15 03:38:56;;;;;;;4.18;2.58;;;;;;;4.76;100.00;92151.00;5090559;28;20048;-71
2022/12/15 03:41:22;;;;;;;4.35;3.17;;;;;;;4.83;100.00;92161.97;5097511;28;20112;-71
2022/12/15 03:43:49;;;;;;;4.18;2.92;;;;;;;4.87;100.00;92159.81;5097798;28;20936;-73
2022/12/15 03:46:16;;;;;;;3.72;2.65;;;;;;;4.91;100.00;92174.47;5089981;28;20089;-72
2022/12/15 03:48:42;;;;;;;4.03;2.90;;;;;;;4.91;100.00;92155.88;5090132;28;20098;-72
2022/12/15 03:51:09;;;;;;;3.70;2.70;;;;;;;5.06;100.00;92181.09;5090332;28;20117;-72
2022/12/15 03:53:37;;;;;;;4.60;2.90;;;;;;;5.05;100.00;92189.72;5090373;28;20144;-72
2022/12/15 03:56:04;;;;;;;3.33;2.30;;;;;;;5.10;100.00;92194.19;5090206;28;20071;-72
2022/12/15 03:58:31;;;;;;;3.92;2.83;;;;;;;5.13;100.00;92196.34;5090102;28;20079;-72
2022/12/15 04:00:57;;;;;;;3.22;2.58;;;;;;;5.15;100.00;92195.16;5090075;28;20051;-72
2022/12/15 04:03:24;;;;;;;4.15;2.88;;;;;;;5.21;100.00;92209.63;5090133;28;20048;-72
2022/12/15 04:05:51;;;;;;;5.20;3.15;;;;;;;5.24;100.00;92216.09;5090086;28;20545;-72
2022/12/15 04:08:18;;;;;;;4.55;2.97;;;;;;;5.26;100.00;92228.59;5090045;28;20055;-72
2022/12/15 04:10:46;;;;;;;4.70;3.20;;;;;;;5.27;100.00;92220.00;5090157;28;20396;-72
2022/12/15 04:13:12;;;;;;;5.15;3.20;;;;;;;5.37;100.00;92222.88;5089891;28;20136;-72
2022/12/15 04:15:40;;;;;;;12.88;7.70;;;;;;;5.39;100.00;92235.41;5089937;28;20048;-72
2022/12/15 04:18:09;;;;;;;7.32;4.78;;;;;;;5.44;100.00;92241.47;5089818;28;20088;-72
2022/12/15 04:20:36;;;;;;;8.90;5.07;;;;;;;5.49;100.00;92245.97;5090014;28;20118;-72
2022/12/15 04:23:06;;;;;;;8.20;5.32;;;;;;;5.60;100.00;92247.09;5089747;28;20044;-72
2022/12/15 05:31:53;;;;;;;2.38;1.67;;;;;;;6.14;100.00;92249.38;5092535;28;20533;-72
2022/12/15 05:34:23;;;;;;;2.92;2.00;;;;;;;6.16;100.00;92255.06;5092241;28;20090;-72
2022/12/15 05:36:50;;;;;;;2.75;1.92;;;;;;;6.23;100.00;92260.13;5092959;28;20113;-72
2022/12/15 05:39:17;;;;;;;3.47;2.20;;;;;;;6.24;100.00;92269.31;5092585;28;20044;-71
2022/12/15 05:41:44;;;;;;;2.60;1.98;;;;;;;6.30;100.00;92277.94;5092784;28;20511;-71
2022/12/15 05:44:10;;;;;;;2.30;1.60;;;;;;;6.34;100.00;92284.19;5092690;28;20140;-72
2022/12/15 05:46:38;;;;;;;2.55;1.85;;;;;;;6.27;100.00;92274.81;5092538;28;20055;-71
2022/12/15 05:49:05;;;;;;;2.97;2.15;;;;;;;6.36;100.00;92293.19;5091886;28;20063;-72
2022/12/15 05:51:37;;;;;;;2.55;1.83;;;;;;;6.41;100.00;92290.81;5092624;28;20129;-72
2022/12/15 05:54:03;;;;;;;2.42;2.00;;;;;;;6.45;100.00;92310.81;5092544;28;20066;-72
2022/12/15 05:56:30;;;;;;;2.50;1.90;;;;;;;6.50;100.00;92334.72;5092243;28;20527;-72
2022/12/15 05:58:57;;;;;;;4.55;2.22;;;;;;;6.49;100.00;92332.38;5092532;28;20094;-71
2022/12/15 06:01:25;;;;;;;3.13;2.20;;;;;;;6.62;100.00;92351.91;5092745;28;20079;-72
2022/12/15 06:03:52;;;;;;;2.63;2.10;;;;;;;6.66;100.00;92345.38;5092054;28;20048;-72
2022/12/15 06:06:19;;;;;;;6.18;2.38;;;;;;;6.65;100.00;92343.84;5092374;28;20048;-72
2022/12/15 06:08:47;;;;;;;2.90;2.22;;;;;;;6.78;100.00;92363.38;5089906;28;20056;-72
2022/12/15 06:11:16;;;;;;;2.97;2.33;;;;;;;6.67;100.00;92352.09;5092350;28;20373;-72
2022/12/15 06:13:43;;;;;;;5.20;2.17;;;;;;;6.83;100.00;92371.22;5092178;28;20048;-72
2022/12/15 06:16:12;;;;;;;3.40;2.58;;;;;;;6.86;100.00;92367.47;5092178;28;20044;-72
2022/12/15 06:18:40;;;;;;;5.05;4.03;;;;;;;6.89;100.00;92379.81;5091818;28;20101;-72
2022/12/15 06:21:09;;;;;;;6.13;3.78;;;;;;;6.86;100.00;92375.91;5092204;28;20149;-71
2022/12/15 06:23:36;;;;;;;3.63;3.08;;;;;;;6.75;100.00;92358.72;5092019;28;20511;-72
2022/12/15 06:26:11;;;;;;;5.50;3.47;;;;;;;6.97;100.00;92374.44;5092119;28;20494;-72
2022/12/15 06:28:38;;;;;;;4.25;3.33;;;;;;;6.98;100.00;92370.91;5091904;28;20060;-72
2022/12/15 06:31:06;;;;;;;8.05;3.00;;;;;;;6.92;100.00;92353.88;5090738;28;20089;-72
2022/12/15 06:33:33;;;;;;;3.90;2.83;;;;;;;6.94;100.00;92372.28;5079688;28;20110;-72
2022/12/15 06:36:03;;;;;;;5.07;3.08;;;;;;;6.95;100.00;92386.66;5086621;28;20474;-71
2022/12/15 06:38:30;;;;;;;6.32;3.55;;;;;;;7.02;100.00;92404.47;5078052;28;20063;-72
2022/12/15 06:40:57;;;;;;;7.25;4.32;;;;;;;7.05;100.00;92396.41;5091743;28;20393;-71
2022/12/15 06:43:25;;;;;;;8.45;5.50;;;;;;;7.09;100.00;92390.66;5077271;28;20507;-72
2022/12/15 06:45:52;;;;;;;8.13;6.30;;;;;;;7.08;100.00;92394.19;5091392;28;20051;-72
2022/12/15 06:48:20;;;;;;;10.02;6.22;;;;;;;7.14;100.00;92402.81;5076801;28;20137;-71
2022/12/15 06:50:47;;;;;;;8.00;4.97;;;;;;;7.25;100.00;92413.31;5088803;28;20043;-72
2022/12/15 06:53:15;;;;;;;9.00;6.18;;;;;;;7.32;100.00;92412.28;5091026;28;20052;-71
2022/12/15 06:55:42;;;;;;;9.15;6.38;;;;;;;7.38;100.00;92415.78;5091469;28;20051;-71
2022/12/15 06:58:08;;;;;;;20.02;10.75;;;;;;;7.41;100.00;92415.34;5090894;28;20576;-72
2022/12/15 07:00:37;;;;;;;12.30;7.20;;;;;;;7.45;100.00;92439.50;5090537;28;20569;-71
2022/12/15 07:03:04;;;;;;;11.43;6.95;;;;;;;7.46;100.00;92428.28;5091391;28;20408;-72
2022/12/15 07:05:31;;;;;;;17.58;9.25;;;;;;;7.49;100.00;92435.53;5090968;28;20121;-72
2022/12/15 07:07:57;;;;;;;16.08;8.70;;;;;;;7.53;100.00;92433.34;5091216;28;20140;-72
2022/12/15 07:10:24;;;;;;;9.25;6.05;;;;;;;7.55;100.00;92436.47;5090251;28;20132;-71
2022/12/15 07:12:51;;;;;;;14.98;9.55;;;;;;;7.63;100.00;92443.09;5090743;28;20091;-71
2022/12/15 07:15:17;;;;;;;11.52;7.60;;;;;;;7.70;100.00;92456.63;5089784;28;20079;-71
2022/12/15 07:17:45;;;;;;;34.45;22.90;;;;;;;7.74;100.00;92457.75;5090147;28;20105;-71
2022/12/15 07:20:13;;;;;;;8.60;5.10;;;;;;;7.78;100.00;92452.97;5090003;28;20088;-71
2022/12/15 07:22:40;;;;;;;14.02;9.93;;;;;;;7.82;100.00;92459.25;5090006;28;20051;-71
2022/12/15 07:25:08;;;;;;;21.98;12.90;;;;;;;7.89;100.00;92469.41;5091234;28;20087;-71
2022/12/15 07:27:34;;;;;;;9.95;5.45;;;;;;;7.93;100.00;92469.78;5091095;28;20113;-71
2022/12/15 07:30:01;;;;;;;10.20;5.20;;;;;;;7.94;100.00;92471.34;5090604;28;20048;-72
2022/12/15 07:32:28;;;;;;;7.40;5.45;;;;;;;8.00;100.00;92467.94;5089975;28;20503;-72
2022/12/15 07:34:56;;;;;;;12.57;6.50;;;;;;;8.05;100.00;92470.63;5096420;28;20071;-71
2022/12/15 07:37:23;;;;;;;8.57;6.07;;;;;;;8.06;100.00;92472.19;5098608;28;20565;-72
2022/12/15 07:39:50;;;;;;;12.43;6.80;;;;;;;7.97;100.00;92450.47;5090259;28;20468;-72
2022/12/15 07:42:16;;;;;;;16.50;11.07;;;;;;;8.19;100.00;92478.94;5100858;28;20116;-72
2022/12/15 07:44:43;;;;;;;12.05;6.65;;;;;;;8.21;100.00;92488.97;5093939;28;20048;-72
2022/12/15 07:47:10;;;;;;;10.15;5.57;;;;;;;8.24;100.00;92488.56;5090109;28;20048;-72
2022/12/15 07:49:36;;;;;;;19.50;14.70;;;;;;;8.29;100.00;92486.91;5089870;28;20466;-71
2022/12/15 07:52:05;;;;;;;20.13;13.07;;;;;;;8.27;100.00;92486.38;5090298;28;20048;-72
2022/12/15 07:54:31;;;;;;;16.40;9.93;;;;;;;8.32;100.00;92488.28;5090213;28;20048;-72
2022/12/15 07:56:59;;;;;;;11.70;8.13;;;;;;;8.46;100.00;92499.16;5095360;28;20483;-71
2022/12/15 07:59:25;;;;;;;14.27;10.70;;;;;;;8.48;100.00;92499.72;5098813;28;20080;-71
2022/12/15 08:01:53;;;;;;;11.20;8.10;;;;;;;8.51;100.00;92501.06;5090045;28;20454;-72
2022/12/15 08:04:19;;;;;;;14.95;10.07;;;;;;;8.54;100.00;92505.78;5090298;28;20135;-72
2022/12/15 08:06:46;;;;;;;19.00;14.25;;;;;;;8.60;100.00;92511.84;5089889;28;20079;-72
2022/12/15 08:09:14;;;;;;;9.43;5.30;;;;;;;8.64;100.00;92505.28;5090255;28;20056;-72
2022/12/15 08:11:41;;;;;;;13.93;10.65;;;;;;;8.55;100.00;92485.09;5090103;28;20440;-72
2022/12/15 08:14:08;;;;;;;10.57;6.47;;;;;;;8.76;100.00;92530.97;5089725;28;20051;-72
2022/12/15 08:16:35;;;;;;;8.77;6.55;;;;;;;8.85;100.00;92529.69;5090182;28;20133;-71
2022/12/15 08:19:04;;;;;;;8.18;5.05;;;;;;;8.81;100.00;92529.28;5090017;28;20147;-72
2022/12/15 08:21:31;;;;;;;8.60;4.50;;;;;;;8.85;100.00;92528.88;5089574;28;20048;-72
2022/12/15 08:23:59;;;;;;;7.72;5.15;;;;;;;8.79;100.00;92525.38;5089582;28;20048;-72
2022/12/15 08:26:27;;;;;;;11.25;7.05;;;;;;;8.89;100.00;92530.03;5089217;28;20056;-72
2022/12/15 08:28:54;;;;;;;14.15;9.80;;;;;;;8.94;100.00;92537.84;5089798;28;20048;-72
2022/12/15 08:31:23;;;;;;;10.05;6.82;;;;;;;8.99;100.00;92535.41;5089667;28;20090;-72
2022/12/15 08:33:50;;;;;;;12.65;8.77;;;;;;;9.03;100.00;92540.88;5089386;28;20101;-72
2022/12/15 08:36:19;;;;;;;5.82;3.25;;;;;;;9.06;100.00;92537.88;5089929;28;20101;-72
2022/12/15 08:38:47;;;;;;;9.80;6.88;;;;;;;9.10;100.00;92546.69;5071845;28;20048;-72
2022/12/15 08:41:15;;;;;;;10.23;5.43;;;;;;;9.15;100.00;92557.09;5088156;28;20052;-72
2022/12/15 08:43:44;;;;;;;7.57;5.43;;;;;;;9.18;100.00;92554.09;5091080;28;20518;-72
2022/12/15 08:46:11;;;;;;;6.18;4.35;;;;;;;9.26;100.00;92562.47;5093682;28;20437;-72
2022/12/15 08:48:38;;;;;;;8.85;4.55;;;;;;;9.26;100.00;92552.22;5093670;28;20047;-72
2022/12/15 08:51:06;;;;;;;13.82;5.60;;;;;;;9.30;100.00;92553.38;5093841;28;20055;-72
2022/12/15 08:53:33;;;;;;;10.18;6.00;;;;;;;9.40;100.00;92565.66;5093655;28;20075;-72
2022/12/15 08:56:02;;;;;;;8.68;4.85;;;;;;;9.44;100.00;92564.97;5093394;28;20076;-72
2022/12/15 08:58:29;;;;;;;11.57;7.50;;;;;;;9.49;100.00;92556.63;5092937;28;20089;-72
2022/12/15 09:01:01;;;;;;;23.40;11.48;;;;;;;9.54;100.00;92556.00;5093323;28;20048;-72
2022/12/15 09:03:28;;;;;;;11.90;6.72;;;;;;;9.63;100.00;92560.56;5093560;28;20541;-72
2022/12/15 09:05:56;;;;;;;7.47;4.38;;;;;;;9.66;100.00;92561.91;5093704;28;20075;-72
2022/12/15 09:08:23;;;;;;;7.20;5.00;;;;;;;9.72;100.00;92562.84;5093389;28;20154;-72
2022/12/15 09:10:49;;;;;;;8.65;4.20;;;;;;;9.69;100.00;92566.63;5093339;28;20040;-72
2022/12/15 09:13:16;;;;;;;14.23;8.45;;;;;;;9.74;100.00;92569.31;5093144;28;20097;-72
2022/12/15 09:15:44;;;;;;;12.50;8.20;;;;;;;9.80;100.00;92565.06;5093046;28;20083;-72
2022/12/15 09:18:12;;;;;;;13.15;6.28;;;;;;;9.83;100.00;92564.66;5093187;28;20427;-72
2022/12/15 09:20:39;;;;;;;32.35;15.68;;;;;;;9.85;100.00;92567.75;5092943;28;20453;-72
2022/12/15 09:23:05;;;;;;;25.63;12.48;;;;;;;10.03;100.00;92582.28;5093659;28;20457;-72
2022/12/15 09:25:33;;;;;;;24.95;13.32;;;;;;;10.05;100.00;92582.06;5093024;28;20094;-72
2022/12/15 09:27:59;;;;;;;20.27;12.05;;;;;;;10.13;100.00;92586.88;5093135;28;20048;-72
2022/12/15 09:30:26;;;;;;;18.10;10.50;;;;;;;10.11;100.00;92568.34;5093017;28;20105;-72
2022/12/15 09:32:53;;;;;;;10.23;5.40;;;;;;;10.22;100.00;92589.09;5092845;28;20050;-72
2022/12/15 09:35:21;;;;;;;17.40;8.38;;;;;;;10.18;100.00;92599.03;5106199;28;20121;-72
2022/12/15 09:37:48;;;;;;;22.75;9.95;;;;;;;10.13;100.00;92592.00;5093261;28;20090;-72
2022/12/15 09:40:15;;;;;;;21.95;11.65;;;;;;;10.22;100.00;92589.88;5092926;28;20442;-72
2022/12/15 09:42:42;;;;;;;14.30;9.30;;;;;;;10.26;100.00;92595.34;5092498;28;20079;-72
2022/12/15 09:45:17;;;;;;;21.88;12.23;;;;;;;10.27;100.00;92597.72;5092573;28;20405;-72
2022/12/15 09:47:51;;;;;;;19.08;10.18;;;;;;;10.28;100.00;92594.13;5092313;28;20059;-72
2022/12/15 09:50:26;;;;;;;26.10;14.10;;;;;;;10.29;100.00;92597.50;5079077;28;20072;-72
2022/12/15 09:52:55;;;;;;;24.75;14.13;;;;;;;10.36;100.00;92595.59;5092917;28;20338;-72
2022/12/15 09:55:24;;;;;;;23.52;12.98;;;;;;;10.40;100.00;92578.75;5097680;28;20047;-72
2022/12/15 09:57:54;;;;;;;34.90;18.30;;;;;;;10.47;100.00;92580.44;5100284;28;20404;-72
2022/12/15 10:00:24;;;;;;;22.55;12.10;;;;;;;10.51;100.00;92584.13;5090278;28;20052;-72
2022/12/15 10:03:38;;;;;;;12.52;7.97;;;;;;;10.43;100.00;92586.00;5091856;28;20085;-72
2022/12/15 10:06:09;;;;;;;54.97;22.60;;;;;;;10.45;100.00;92577.31;5028910;28;20143;-72
2022/12/15 10:08:39;;;;;;;25.98;13.45;;;;;;;10.45;100.00;92574.75;5085245;28;20272;-72
2022/12/15 10:11:16;;;;;;;30.52;15.85;;;;;;;10.48;100.00;92569.16;5092263;28;20040;-72
2022/12/15 10:13:51;;;;;;;23.75;12.00;;;;;;;10.39;100.00;92555.84;5084738;28;20051;-72
2022/12/15 10:16:22;;;;;;;28.77;12.68;;;;;;;10.43;100.00;92559.56;5082867;28;20048;-72
2022/12/15 10:19:00;;;;;;;12.25;7.00;;;;;;;10.33;100.00;92564.44;5091034;28;20071;-72
2022/12/15 10:21:31;;;;;;;25.73;11.30;;;;;;;10.29;100.00;92564.88;5091953;28;20048;-72
2022/12/15 10:24:02;;;;;;;10.93;5.18;;;;;;;10.32;100.00;92578.28;5091976;28;20040;-72
2022/12/15 10:26:34;;;;;;;11.05;5.40;;;;;;;10.28;100.00;92578.72;5091683;28;20488;-71
2022/12/15 10:29:16;;;;;;;16.23;7.20;;;;;;;10.31;100.00;92582.63;5091775;28;20457;-72
2022/12/15 10:31:49;;;;;;;10.32;6.43;;;;;;;10.34;100.00;92583.97;5092222;28;20044;-72
2022/12/15 10:34:28;;;;;;;19.83;9.15;;;;;;;10.39;100.00;92578.94;5091689;28;20514;-72
2022/12/15 10:36:57;;;;;;;9.70;6.45;;;;;;;10.42;100.00;92581.09;5091886;28;20416;-72
2022/12/15 10:39:35;;;;;;;11.20;7.05;;;;;;;10.42;100.00;92583.66;5091625;28;20075;-72
2022/12/15 10:42:19;;;;;;;15.27;9.05;;;;;;;10.52;100.00;92572.84;5091446;28;20054;-72
2022/12/15 10:44:48;;;;;;;15.30;8.00;;;;;;;10.58;100.00;92587.34;5091410;28;20044;-72
2022/12/15 10:47:24;;;;;;;19.27;10.48;;;;;;;10.64;100.00;92575.41;5091299;28;20495;-72
2022/12/15 10:49:51;;;;;;;19.60;10.75;;;;;;;10.68;100.00;92587.56;5091072;28;20416;-72
2022/12/15 10:52:27;;;;;;;17.15;10.55;;;;;;;10.76;100.00;92578.72;5091372;28;20065;-72
2022/12/15 10:54:55;;;;;;;12.07;6.68;;;;;;;10.84;100.00;92590.47;5091569;28;20473;-72
2022/12/15 10:57:26;;;;;;;11.88;6.18;;;;;;;10.91;100.00;92588.53;5091655;28;20116;-72
2022/12/15 10:59:54;;;;;;;15.57;7.90;;;;;;;11.00;100.00;92593.31;5091381;28;20139;-72
2022/12/15 11:02:38;;;;;;;10.07;6.13;;;;;;;11.06;100.00;92592.44;5091329;28;20133;-72
2022/12/15 11:05:16;;;;;;;20.67;11.88;;;;;;;11.20;100.00;92587.81;5091208;28;20845;-72
2022/12/15 11:07:46;;;;;;;9.05;5.40;;;;;;;11.27;100.00;92593.59;5090734;28;20454;-72
2022/12/15 11:10:20;;;;;;;11.52;5.47;;;;;;;11.28;100.00;92589.22;5091417;28;20048;-72
2022/12/15 11:12:55;;;;;;;8.90;6.05;;;;;;;11.34;100.00;92601.16;5090956;28;20093;-72
2022/12/15 11:15:46;;;;;;;9.90;4.57;;;;;;;11.28;100.00;92596.91;5090980;28;20048;-72
2022/12/15 11:18:27;;;;;;;8.32;4.53;;;;;;;11.29;100.00;92601.06;5073649;28;20044;-72
2022/12/15 11:20:58;;;;;;;8.52;4.80;;;;;;;11.31;100.00;92599.84;5090953;28;20459;-72
2022/12/15 11:23:36;;;;;;;11.88;5.25;;;;;;;11.39;100.00;92600.47;5098909;28;20051;-72
2022/12/15 11:26:17;;;;;;;7.68;5.03;;;;;;;11.38;100.00;92602.25;5095361;28;20101;-72
2022/12/15 11:28:50;;;;;;;9.57;6.65;;;;;;;11.46;100.00;92604.47;5090999;28;20052;-72
2022/12/15 11:31:25;;;;;;;8.95;5.45;;;;;;;11.47;100.00;92598.31;5087742;28;20086;-72
2022/12/15 11:33:52;;;;;;;11.27;6.15;;;;;;;11.47;100.00;92600.09;5080656;28;20064;-72
2022/12/15 11:36:39;;;;;;;8.27;4.90;;;;;;;11.52;100.00;92604.56;5087777;28;20125;-72
2022/12/15 11:39:19;;;;;;;9.93;4.60;;;;;;;11.51;100.00;92606.34;5088486;28;20036;-72
2022/12/15 11:41:54;;;;;;;6.95;4.55;;;;;;;11.61;100.00;92603.16;5087704;28;20155;-72
2022/12/15 11:44:27;;;;;;;6.15;3.90;;;;;;;11.67;100.00;92606.63;5086109;28;20091;-72
2022/12/15 11:47:05;;;;;;;9.98;4.55;;;;;;;11.69;100.00;92610.53;5089568;28;20565;-72
2022/12/15 11:50:07;;;;;;;6.65;4.38;;;;;;;11.71;100.00;92602.59;5087060;28;20044;-72
2022/12/15 11:53:00;;;;;;;10.02;5.43;;;;;;;11.82;100.00;92594.03;5087490;28;20048;-72
2022/12/15 11:55:41;;;;;;;8.95;4.70;;;;;;;12.02;100.00;92606.44;5090029;28;20420;-72
2022/12/15 11:58:33;;;;;;;8.30;4.63;;;;;;;12.16;100.00;92604.38;5090061;28;20082;-72
2022/12/15 12:01:10;;;;;;;11.10;7.30;;;;;;;12.33;100.00;92605.38;5090276;28;20451;-72
2022/12/15 12:03:48;;;;;;;7.68;4.18;;;;;;;12.45;100.00;92607.88;5089426;28;20036;-72
2022/12/15 12:06:23;;;;;;;9.65;4.95;;;;;;;12.51;100.00;92609.50;5090269;28;20129;-71
2022/12/15 12:09:08;;;;;;;9.15;4.45;;;;;;;12.58;100.00;92614.50;5094391;28;20039;-72
2022/12/15 12:11:42;;;;;;;7.90;5.13;;;;;;;12.58;100.00;92614.50;5097563;28;20048;-72
2022/12/15 12:14:22;;;;;;;7.93;5.05;;;;;;;12.62;100.00;92616.34;5089687;28;20052;-72
2022/12/15 12:16:59;;;;;;;8.05;4.82;;;;;;;12.56;100.00;92615.50;5086935;28;20122;-72
2022/12/15 12:19:32;;;;;;;9.98;4.47;;;;;;;12.54;100.00;92614.16;5089934;28;20056;-72
2022/12/15 12:22:06;;;;;;;11.10;5.10;;;;;;;12.58;100.00;92617.06;5081597;28;20048;-72
2022/12/15 12:24:39;;;;;;;7.18;3.75;;;;;;;12.55;100.00;92624.25;5084458;28;20184;-72
2022/12/15 12:27:16;;;;;;;7.65;4.28;;;;;;;12.54;100.00;92629.63;5089979;28;20117;-71
2022/12/15 12:29:46;;;;;;;6.65;4.32;;;;;;;12.54;100.00;92639.91;5090002;28;20047;-72
2022/12/15 12:32:18;;;;;;;9.38;4.70;;;;;;;12.54;100.00;92645.06;5089822;28;20052;-72
2022/12/15 12:34:59;;;;;;;7.13;4.10;;;;;;;12.37;100.00;92621.91;5089921;28;20490;-72
2022/12/15 12:37:31;;;;;;;7.78;4.40;;;;;;;12.55;100.00;92655.16;5089758;28;20048;-72
2022/12/15 12:40:02;;;;;;;8.68;5.40;;;;;;;12.54;100.00;92648.44;5089698;28;20048;-72
2022/12/15 12:42:37;;;;;;;9.75;4.95;;;;;;;12.58;100.00;92646.19;5089026;28;20048;-71
2022/12/15 12:45:05;;;;;;;10.07;4.50;;;;;;;12.53;100.00;92646.09;5089453;28;20511;-71
2022/12/15 12:47:37;;;;;;;9.30;4.97;;;;;;;12.56;100.00;92650.78;5089541;28;20109;-72
2022/12/15 12:50:06;;;;;;;7.00;4.30;;;;;;;12.45;100.00;92655.00;5089844;28;20048;-71
2022/12/15 12:52:53;;;;;;;8.50;4.63;;;;;;;12.43;100.00;92642.38;5089500;28;20101;-72
2022/12/15 12:55:26;;;;;;;10.27;4.57;;;;;;;12.48;100.00;92654.53;5089098;28;20087;-71
2022/12/15 12:57:55;;;;;;;11.52;5.63;;;;;;;12.52;100.00;92652.28;5089694;28;20109;-72
2022/12/15 13:00:24;;;;;;;9.43;5.72;;;;;;;12.54;100.00;92650.22;5089545;28;20141;-72
2022/12/15 13:03:09;;;;;;;14.77;9.95;;;;;;;12.56;100.00;92645.63;5089205;28;20454;-72
2022/12/15 13:05:37;;;;;;;8.32;5.20;;;;;;;12.57;100.00;92647.19;5089686;28;20070;-72
2022/12/15 13:08:32;;;;;;;10.60;6.13;;;;;;;12.62;100.00;92652.44;5089638;28;20055;-72
2022/12/15 13:11:19;;;;;;;;;;;;;;;12.62;100.00;92659.34;5078657;28;20044;-72
2022/12/15 13:13:47;;;;;;;8.80;5.50;;;;;;;12.55;100.00;92651.81;5085556;28;19960;-72
2022/12/15 13:16:21;;;;;;;9.50;5.68;;;;;;;12.60;100.00;92654.47;5078973;28;20075;-72
2022/12/15 13:18:56;;;;;;;7.47;4.53;;;;;;;12.56;100.00;92661.09;5077895;28;20500;-72
2022/12/15 13:21:51;;;;;;;10.07;5.05;;;;;;;12.51;100.00;92664.34;5081642;28;20094;-72
2022/12/15 13:24:26;;;;;;;12.43;7.80;;;;;;;12.56;100.00;92666.25;5088863;28;20044;-72
2022/12/15 13:26:53;;;;;;;15.15;9.43;;;;;;;12.61;100.00;92665.53;5088971;28;20079;-72
2022/12/15 13:29:23;;;;;;;11.98;7.18;;;;;;;12.44;100.00;92645.72;5089970;28;20060;-72
2022/12/15 13:31:51;;;;;;;15.50;8.98;;;;;;;12.60;100.00;92672.50;5092541;28;20048;-72
2022/12/15 13:34:26;;;;;;;40.55;19.45;;;;;;;12.53;100.00;92658.97;5092864;28;20184;-72
2022/12/15 13:37:02;;;;;;;96.82;42.15;;;;;;;12.66;100.00;92676.72;5092942;28;20136;-71
2022/12/15 13:39:50;;;;;;;64.32;29.15;;;;;;;12.71;100.00;92681.16;5092972;28;20121;-71
2022/12/15 13:42:29;;;;;;;35.33;16.15;;;;;;;12.69;100.00;92683.94;5092332;28;20062;-72
2022/12/15 13:45:14;;;;;;;67.80;30.17;;;;;;;12.65;100.00;92680.28;5092316;28;20561;-72
2022/12/15 13:47:50;;;;;;;22.08;12.40;;;;;;;12.68;100.00;92689.34;5092184;28;20089;-72
2022/12/15 13:50:24;;;;;;;16.85;8.13;;;;;;;12.66;100.00;92688.81;5078569;28;20048;-72
2022/12/15 13:52:53;;;;;;;29.52;14.55;;;;;;;12.42;100.00;92658.81;5092408;28;20096;-71
2022/12/15 13:55:22;;;;;;;21.88;10.52;;;;;;;12.60;100.00;92694.91;5092251;28;20740;-71
2022/12/15 13:57:59;;;;;;;20.23;13.00;;;;;;;12.52;100.00;92691.72;5092460;28;20052;-71
2022/12/15 14:00:27;;;;;;;33.88;19.33;;;;;;;12.56;100.00;92707.47;5091841;28;20059;-72
2022/12/15 14:03:05;;;;;;;22.05;12.38;;;;;;;12.50;100.00;92706.59;5092249;28;20097;-72
2022/12/15 14:05:32;;;;;;;23.75;11.27;;;;;;;12.51;100.00;92707.38;5091995;28;20054;-72